Time;durP1;ratioP1;P1;durP2;ratioP2;P2;SDS_P1;SDS_P2;PMS_P1;PMS_P2;Temp;Humidity;BMP_temperature;BMP_pressure;BME280_temperature;BME280_humidity;BME280_pressure;Samples;Min_cycle;Max_cycle;Signal;HPM_P1;HPM_P2
2021/06/14 00:00:10;;;;;;;8.50;6.40;;;15.70;92.20;;;;;;6142647;23;20477;-76
2021/06/14 00:02:42;;;;;;;6.43;5.73;;;15.70;92.00;;;;;;6133976;23;20806;-77
2021/06/14 00:05:14;;;;;;;6.93;5.20;;;15.60;92.00;;;;;;6139392;23;20398;-76
2021/06/14 00:07:42;;;;;;;9.70;5.73;;;15.60;92.00;;;;;;6101755;23;20412;-76
2021/06/14 00:10:13;;;;;;;10.33;8.97;;;15.60;92.10;;;;;;6137631;23;20454;-76
2021/06/14 00:12:42;;;;;;;11.33;9.87;;;15.50;92.10;;;;;;6126264;23;20413;-76
2021/06/14 00:15:14;;;;;;;12.23;11.03;;;15.50;92.10;;;;;;6137512;23;20409;-76
2021/06/14 00:17:42;;;;;;;10.80;9.70;;;15.50;92.20;;;;;;6127801;23;20449;-76
2021/06/14 00:20:13;;;;;;;10.70;9.60;;;15.50;92.20;;;;;;6125989;23;20418;-76
2021/06/14 00:22:43;;;;;;;10.50;7.57;;;15.40;92.20;;;;;;6101817;23;20797;-76
2021/06/14 00:25:15;;;;;;;9.90;7.13;;;15.40;92.30;;;;;;6101728;23;20517;-76
2021/06/14 00:27:43;;;;;;;8.67;6.67;;;15.30;92.30;;;;;;6125992;23;20424;-76
2021/06/14 00:30:15;;;;;;;9.73;8.67;;;15.30;92.60;;;;;;6125872;23;20381;-76
2021/06/14 00:32:43;;;;;;;9.40;8.20;;;15.30;92.40;;;;;;6126138;23;20423;-76
2021/06/14 00:35:11;;;;;;;8.70;7.70;;;15.20;92.40;;;;;;6101507;23;20431;-77
2021/06/14 00:37:40;;;;;;;9.33;6.87;;;15.20;92.50;;;;;;6127114;23;20793;-76
2021/06/14 00:40:09;;;;;;;9.27;6.47;;;15.20;92.50;;;;;;6101494;23;20428;-76
2021/06/14 00:42:37;;;;;;;8.60;6.43;;;15.20;92.60;;;;;;6100384;23;20896;-76
2021/06/14 00:45:08;;;;;;;9.83;6.67;;;15.20;93.10;;;;;;6101789;23;20174;-77
2021/06/14 00:47:38;;;;;;;6.70;5.63;;;15.20;92.90;;;;;;6101686;23;20409;-76
2021/06/14 00:50:08;;;;;;;7.83;5.67;;;15.10;92.80;;;;;;6125887;23;20428;-76
2021/06/14 00:52:36;;;;;;;8.45;5.90;;;15.10;92.90;;;;;;6101833;23;20418;-76
2021/06/14 00:55:06;;;;;;;6.87;6.17;;;15.00;92.90;;;;;;6136787;23;20174;-75
2021/06/14 00:57:34;;;;;;;9.27;5.90;;;15.00;92.90;;;;;;6101280;23;20424;-76
2021/06/14 01:00:05;;;;;;;8.23;6.10;;;15.00;93.00;;;;;;6137323;23;20430;-75
2021/06/14 01:02:40;;;;;;;6.97;5.80;;;14.90;93.00;;;;;;6101513;23;20744;-76
2021/06/14 01:05:11;;;;;;;6.53;5.93;;;14.90;93.00;;;;;;6137031;23;20376;-76
2021/06/14 01:07:39;;;;;;;9.10;6.30;;;14.90;93.10;;;;;;6101008;23;20532;-75
2021/06/14 01:10:09;;;;;;;8.57;5.30;;;14.90;93.10;;;;;;6125755;23;20425;-76
2021/06/14 01:12:54;;;;;;;6.80;6.10;;;14.80;93.10;;;;;;6137101;23;20401;-76
2021/06/14 01:15:23;;;;;;;7.90;5.60;;;14.80;93.10;;;;;;6125765;23;20727;-76
2021/06/14 01:18:00;;;;;;;7.90;5.33;;;14.80;93.10;;;;;;6125413;23;20428;-76
2021/06/14 01:20:56;;;;;;;7.93;5.33;;;14.70;93.20;;;;;;6101205;23;20668;-76
2021/06/14 01:23:42;;;;;;;7.00;5.97;;;14.70;93.20;;;;;;6082679;23;20400;-76
2021/06/14 01:26:16;;;;;;;8.60;5.77;;;14.70;93.20;;;;;;6101174;23;20388;-76
2021/06/14 01:28:50;;;;;;;8.07;6.47;;;14.60;93.20;;;;;;6101084;23;20439;-76
2021/06/14 01:31:24;;;;;;;8.30;6.17;;;14.60;93.20;;;;;;6101014;23;20444;-75
2021/06/14 01:33:54;;;;;;;6.60;6.00;;;14.60;93.30;;;;;;6100581;23;20380;-75
2021/06/14 01:36:26;;;;;;;9.27;5.83;;;14.60;93.30;;;;;;6126849;23;20475;-75
2021/06/14 01:38:56;;;;;;;7.47;5.43;;;14.60;93.40;;;;;;6100709;23;20412;-76
2021/06/14 01:41:28;;;;;;;8.13;6.80;;;14.50;93.40;;;;;;6100887;23;20424;-76
2021/06/14 01:44:10;;;;;;;5.67;5.07;;;14.50;93.40;;;;;;6100839;23;20408;-76
2021/06/14 01:46:43;;;;;;;7.10;6.20;;;14.40;93.40;;;;;;6136953;23;20406;-77
2021/06/14 01:49:13;;;;;;;8.10;6.55;;;14.40;93.50;;;;;;6100481;23;20488;-77
2021/06/14 01:51:45;;;;;;;7.60;5.47;;;14.40;93.60;;;;;;6100364;23;20159;-75
2021/06/14 01:54:20;;;;;;;8.73;5.73;;;14.40;93.60;;;;;;6100830;23;20881;-76
2021/06/14 01:57:01;;;;;;;8.07;5.57;;;14.40;93.60;;;;;;6100768;23;20408;-76
2021/06/14 01:59:54;;;;;;;7.97;5.90;;;14.30;93.70;;;;;;6111811;23;20389;-76
2021/06/14 02:02:30;;;;;;;6.20;5.60;;;14.30;93.90;;;;;;6126695;23;20189;-76
2021/06/14 02:05:09;;;;;;;7.40;5.47;;;14.30;93.90;;;;;;6125223;23;20471;-77
2021/06/14 02:07:42;;;;;;;7.90;5.30;;;14.30;93.90;;;;;;6100347;23;20504;-75
2021/06/14 02:10:12;;;;;;;8.83;5.53;;;14.30;93.90;;;;;;6101687;23;20858;-76
2021/06/14 02:12:41;;;;;;;6.67;5.67;;;14.20;93.90;;;;;;6125387;23;20486;-76
2021/06/14 02:15:13;;;;;;;7.90;5.57;;;14.20;93.90;;;;;;6100823;23;20414;-76
2021/06/14 02:17:43;;;;;;;6.87;5.70;;;14.20;94.00;;;;;;6125186;23;20452;-76
2021/06/14 02:20:14;;;;;;;7.77;5.80;;;14.20;94.00;;;;;;6100524;23;20419;-76
2021/06/14 02:22:42;;;;;;;7.73;5.47;;;14.10;94.00;;;;;;6136321;23;20621;-76
2021/06/14 02:25:12;;;;;;;8.33;5.80;;;14.10;94.10;;;;;;6100627;23;20389;-76
2021/06/14 02:27:43;;;;;;;6.30;5.50;;;14.10;94.10;;;;;;6101446;23;20413;-76
2021/06/14 02:30:22;;;;;;;9.20;6.03;;;14.10;94.10;;;;;;6100718;23;20413;-75
2021/06/14 02:32:53;;;;;;;9.10;6.20;;;14.10;94.20;;;;;;6100461;23;20696;-76
2021/06/14 02:35:23;;;;;;;7.00;5.93;;;14.10;94.20;;;;;;6100353;23;20879;-75
2021/06/14 02:37:55;;;;;;;11.67;6.40;;;14.10;94.30;;;;;;6135901;23;20423;-75
2021/06/14 02:40:29;;;;;;;8.07;6.13;;;14.00;94.30;;;;;;6100432;23;20468;-76
2021/06/14 02:43:00;;;;;;;9.50;6.40;;;14.00;94.30;;;;;;6100494;23;20401;-75
2021/06/14 02:45:32;;;;;;;8.77;5.73;;;14.00;94.40;;;;;;6125085;23;20410;-76
2021/06/14 02:48:06;;;;;;;7.37;6.43;;;14.00;94.40;;;;;;6136770;23;20449;-75
2021/06/14 02:50:38;;;;;;;14.60;5.90;;;14.00;94.40;;;;;;6100844;23;20390;-76
2021/06/14 02:53:10;;;;;;;7.10;5.00;;;13.90;94.40;;;;;;6124657;23;20745;-76
2021/06/14 02:55:45;;;;;;;7.23;5.73;;;13.90;94.40;;;;;;6126233;23;20463;-76
2021/06/14 02:58:16;;;;;;;8.67;6.20;;;13.90;94.50;;;;;;6124739;23;20480;-75
2021/06/14 03:00:46;;;;;;;8.80;6.80;;;13.90;94.50;;;;;;6125368;23;20399;-75
2021/06/14 03:03:15;;;;;;;7.47;6.20;;;13.80;94.50;;;;;;6095358;23;20427;-75
2021/06/14 03:05:45;;;;;;;6.83;5.57;;;13.80;94.60;;;;;;6095832;23;20856;-76
2021/06/14 03:08:16;;;;;;;9.43;6.63;;;13.80;94.60;;;;;;6107043;23;20478;-76
2021/06/14 03:10:45;;;;;;;7.60;6.00;;;13.80;94.70;;;;;;6096977;23;20385;-76
2021/06/14 03:13:14;;;;;;;7.70;6.37;;;13.80;94.80;;;;;;6095568;23;20395;-76
2021/06/14 03:15:44;;;;;;;7.17;5.57;;;13.80;94.80;;;;;;6095629;23;20418;-76
2021/06/14 03:18:15;;;;;;;8.00;5.90;;;13.80;94.80;;;;;;6095354;23;20734;-75
2021/06/14 03:20:46;;;;;;;7.23;6.50;;;13.80;94.90;;;;;;6095749;23;20432;-76
2021/06/14 03:23:15;;;;;;;7.10;4.93;;;13.80;94.90;;;;;;6095589;23;20751;-76
2021/06/14 03:25:44;;;;;;;6.63;5.63;;;13.70;94.90;;;;;;6095810;23;20906;-76
2021/06/14 03:28:15;;;;;;;7.97;5.73;;;13.70;95.00;;;;;;6106998;23;20779;-76
2021/06/14 03:30:44;;;;;;;7.17;6.00;;;13.70;95.00;;;;;;6095452;23;20470;-76
2021/06/14 03:33:19;;;;;;;6.57;5.87;;;13.70;95.10;;;;;;6095036;23;20430;-75
2021/06/14 03:35:49;;;;;;;6.13;5.37;;;13.70;95.10;;;;;;6119712;23;20509;-76
2021/06/14 03:38:17;;;;;;;6.57;4.80;;;13.70;95.20;;;;;;6095118;23;20439;-76
2021/06/14 03:40:46;;;;;;;8.57;6.30;;;13.70;95.20;;;;;;6095544;23;20864;-76
2021/06/14 03:43:14;;;;;;;7.00;6.23;;;13.70;95.20;;;;;;6097256;23;20430;-76
2021/06/14 03:45:42;;;;;;;7.30;5.53;;;13.70;95.30;;;;;;6106631;23;20366;-76
2021/06/14 03:48:11;;;;;;;8.97;6.47;;;13.70;95.30;;;;;;6106269;23;20405;-75
2021/06/14 03:50:40;;;;;;;8.13;5.87;;;13.70;95.30;;;;;;6106860;23;20881;-76
2021/06/14 03:53:08;;;;;;;7.20;5.90;;;13.70;95.40;;;;;;6094887;23;20902;-75
2021/06/14 03:55:37;;;;;;;7.23;6.10;;;13.70;95.40;;;;;;6095342;23;20397;-76
2021/06/14 03:58:05;;;;;;;9.53;5.80;;;13.70;95.50;;;;;;6095009;23;20422;-76
2021/06/14 04:00:38;;;;;;;8.67;5.80;;;13.70;95.50;;;;;;6097181;23;20414;-76
2021/06/14 04:03:06;;;;;;;9.40;6.43;;;13.70;95.50;;;;;;6100636;23;20489;-76
2021/06/14 04:05:43;;;;;;;14.63;10.33;;;13.70;95.60;;;;;;6124351;23;20494;-76
2021/06/14 04:08:36;;;;;;;15.77;12.43;;;13.70;95.70;;;;;;6124685;23;20632;-76
2021/06/14 04:11:04;;;;;;;17.35;12.88;;;13.70;95.70;;;;;;6135420;23;20395;-76
2021/06/14 04:13:32;;;;;;;18.47;11.60;;;13.70;96.20;;;;;;6100757;23;20170;-75
2021/06/14 04:16:01;;;;;;;13.10;11.57;;;13.80;96.10;;;;;;6101867;23;20392;-76
2021/06/14 04:18:29;;;;;;;12.47;7.73;;;13.70;96.00;;;;;;6137280;23;20437;-76
2021/06/14 04:20:58;;;;;;;9.13;6.72;;;13.80;96.10;;;;;;6101428;23;20401;-76
2021/06/14 04:23:27;;;;;;;8.03;5.83;;;13.80;96.50;;;;;;6101876;23;20170;-76
2021/06/14 04:25:55;;;;;;;7.20;6.07;;;13.80;96.40;;;;;;6101634;23;20393;-76
2021/06/14 04:28:23;;;;;;;7.07;6.10;;;13.80;96.40;;;;;;6126181;23;20669;-76
2021/06/14 04:30:51;;;;;;;9.70;7.03;;;13.80;96.50;;;;;;6137229;23;20484;-76
2021/06/14 04:33:20;;;;;;;10.80;6.43;;;13.80;96.50;;;;;;6101701;23;20421;-76
2021/06/14 04:35:48;;;;;;;6.70;5.90;;;13.90;96.60;;;;;;6101674;23;20445;-76
2021/06/14 04:38:18;;;;;;;8.63;5.80;;;13.90;96.60;;;;;;6100814;23;20420;-76
2021/06/14 04:40:47;;;;;;;8.90;6.23;;;13.90;96.70;;;;;;6098661;23;20471;-75
2021/06/14 04:43:15;;;;;;;11.87;6.93;;;14.00;96.80;;;;;;6138210;23;20408;-76
2021/06/14 04:45:43;;;;;;;10.27;6.80;;;14.00;96.80;;;;;;6137611;23;20407;-76
2021/06/14 04:48:12;;;;;;;12.93;6.30;;;14.00;96.80;;;;;;6101702;23;20507;-77
2021/06/14 04:50:45;;;;;;;10.83;7.70;;;14.00;96.90;;;;;;6126059;23;20385;-77
2021/06/14 04:53:13;;;;;;;9.53;7.03;;;14.10;97.00;;;;;;6127820;23;20385;-77
2021/06/14 04:55:45;;;;;;;11.53;6.83;;;14.10;97.00;;;;;;6126309;23;20417;-77
2021/06/14 04:58:20;;;;;;;8.27;6.23;;;14.20;97.10;;;;;;6127316;23;20408;-76
2021/06/14 05:00:48;;;;;;;9.27;6.23;;;14.20;97.10;;;;;;6101487;23;20417;-76
2021/06/14 05:03:16;;;;;;;9.50;5.80;;;14.20;97.10;;;;;;6101469;23;20457;-76
2021/06/14 05:05:44;;;;;;;7.20;5.97;;;14.30;97.10;;;;;;6125858;23;20435;-77
2021/06/14 05:08:18;;;;;;;8.13;7.27;;;14.30;97.20;;;;;;6101136;23;20955;-76
2021/06/14 05:10:48;;;;;;;10.33;6.20;;;14.40;97.20;;;;;;6137157;23;20411;-76
2021/06/14 05:13:17;;;;;;;10.37;6.50;;;14.40;97.30;;;;;;6137569;23;20420;-76
2021/06/14 05:15:45;;;;;;;13.90;6.20;;;14.50;97.30;;;;;;6101410;23;20711;-76
2021/06/14 05:18:44;;;;;;;8.67;6.87;;;14.50;97.30;;;;;;6136855;23;20509;-76
2021/06/14 05:27:41;;;;;;;9.07;6.40;;;14.70;97.50;;;;;;6100372;23;20748;-76
2021/06/14 05:30:10;;;;;;;8.83;6.57;;;14.80;97.60;;;;;;6101148;23;20456;-76
2021/06/14 05:32:39;;;;;;;9.77;7.03;;;14.90;97.70;;;;;;6101059;23;20446;-76
2021/06/14 05:35:08;;;;;;;7.03;6.20;;;15.00;97.70;;;;;;6136965;23;20403;-76
2021/06/14 05:37:37;;;;;;;10.07;7.43;;;15.20;97.80;;;;;;6125518;23;20491;-76
2021/06/14 05:40:07;;;;;;;8.60;6.50;;;15.40;97.90;;;;;;6101066;23;20441;-76
2021/06/14 05:42:37;;;;;;;9.73;7.17;;;15.60;97.90;;;;;;6125514;23;20418;-76
2021/06/14 05:45:08;;;;;;;9.53;6.77;;;15.90;98.30;;;;;;6101129;23;20754;-76
2021/06/14 05:47:36;;;;;;;7.87;6.00;;;16.10;98.00;;;;;;6137162;23;20401;-77
2021/06/14 05:50:05;;;;;;;9.47;6.27;;;16.40;98.10;;;;;;6125651;23;20450;-77
2021/06/14 05:52:34;;;;;;;9.33;6.60;;;16.70;98.10;;;;;;6127279;23;20372;-76
2021/06/14 05:55:02;;;;;;;8.03;6.70;;;17.00;98.10;;;;;;6100918;23;20427;-76
2021/06/14 05:57:31;;;;;;;8.60;5.73;;;17.40;98.00;;;;;;6100966;23;20525;-77
2021/06/14 05:59:59;;;;;;;8.33;7.10;;;17.70;98.00;;;;;;6127143;23;20504;-77
2021/06/14 06:02:31;;;;;;;7.80;5.93;;;18.10;97.90;;;;;;6100937;23;20910;-76
2021/06/14 06:04:59;;;;;;;6.83;5.53;;;18.40;97.80;;;;;;6100959;23;20414;-77
2021/06/14 06:07:27;;;;;;;8.03;5.10;;;18.70;97.70;;;;;;6136661;23;20414;-77
2021/06/14 06:09:55;;;;;;;9.10;5.80;;;19.00;97.60;;;;;;6100942;23;20455;-77
2021/06/14 06:12:24;;;;;;;5.87;5.30;;;19.30;97.50;;;;;;6125267;23;20424;-76
2021/06/14 06:14:52;;;;;;;7.03;6.00;;;19.60;97.40;;;;;;6100767;23;20804;-77
2021/06/14 06:17:20;;;;;;;7.20;6.03;;;19.90;97.30;;;;;;6125151;23;20447;-77
2021/06/14 06:19:52;;;;;;;5.87;4.87;;;20.20;97.10;;;;;;6100884;23;20836;-77
2021/06/14 06:22:21;;;;;;;12.23;5.77;;;20.50;96.90;;;;;;6136937;23;20408;-77
2021/06/14 06:24:49;;;;;;;9.13;6.37;;;20.70;96.80;;;;;;6101140;23;20428;-78
2021/06/14 06:27:20;;;;;;;9.33;6.43;;;21.00;96.60;;;;;;6136871;23;20443;-77
2021/06/14 06:29:48;;;;;;;6.93;5.10;;;21.20;96.40;;;;;;6100915;23;20492;-78
2021/06/14 06:32:18;;;;;;;9.90;5.07;;;21.50;96.10;;;;;;6101401;23;20448;-78
2021/06/14 06:34:46;;;;;;;6.87;4.33;;;21.70;95.90;;;;;;6103428;23;20524;-78
2021/06/14 06:37:16;;;;;;;8.13;4.87;;;21.90;95.60;;;;;;6101583;23;20427;-78
2021/06/14 06:39:44;;;;;;;5.37;4.40;;;22.10;95.30;;;;;;6103850;23;20492;-78
2021/06/14 06:42:12;;;;;;;7.93;5.37;;;22.30;95.20;;;;;;6139210;23;20401;-78
2021/06/14 06:44:40;;;;;;;7.60;5.20;;;22.50;94.90;;;;;;6103246;23;20516;-78
2021/06/14 06:47:09;;;;;;;8.40;6.07;;;22.70;94.70;;;;;;6128598;23;20506;-78
2021/06/14 06:49:37;;;;;;;8.80;5.10;;;22.90;94.50;;;;;;6130163;23;20475;-78
2021/06/14 06:52:07;;;;;;;7.70;5.93;;;23.10;94.30;;;;;;6128161;23;20494;-78
2021/06/14 06:54:39;;;;;;;7.07;4.80;;;23.30;94.00;;;;;;6128285;23;20400;-78
2021/06/14 06:57:08;;;;;;;6.63;4.87;;;23.50;93.80;;;;;;6126950;23;20433;-78
2021/06/14 06:59:37;;;;;;;6.73;4.80;;;23.60;93.70;;;;;;6128567;23;20438;-78
2021/06/14 07:02:05;;;;;;;6.10;4.90;;;23.80;93.60;;;;;;6102361;23;20430;-78
2021/06/14 07:04:34;;;;;;;5.57;5.00;;;24.00;93.50;;;;;;6138263;23;20401;-78
2021/06/14 07:07:02;;;;;;;8.50;7.20;;;24.20;93.40;;;;;;6128735;23;20433;-78
2021/06/14 07:09:31;;;;;;;10.23;6.80;;;24.30;93.20;;;;;;6136458;23;20409;-77
2021/06/14 07:12:00;;;;;;;6.63;4.33;;;24.50;93.10;;;;;;6124967;23;20421;-77
2021/06/14 07:14:29;;;;;;;6.33;4.80;;;24.70;92.90;;;;;;6126877;23;20947;-77
2021/06/14 07:16:57;;;;;;;8.77;6.00;;;24.80;92.70;;;;;;6100520;23;20456;-78
2021/06/14 07:19:25;;;;;;;5.70;4.00;;;24.90;92.40;;;;;;6136446;23;20402;-77
2021/06/14 07:21:55;;;;;;;5.67;4.70;;;25.10;92.20;;;;;;6137229;23;20453;-78
2021/06/14 07:24:23;;;;;;;6.10;4.00;;;25.10;91.70;;;;;;6100687;23;20480;-77
2021/06/14 07:26:51;;;;;;;4.57;3.67;;;25.20;91.40;;;;;;6100758;23;20909;-77
2021/06/14 07:29:22;;;;;;;7.00;4.60;;;25.30;91.20;;;;;;6136262;23;20940;-77
2021/06/14 07:31:50;;;;;;;5.97;3.90;;;25.40;90.90;;;;;;6100589;23;20413;-77
2021/06/14 07:34:18;;;;;;;7.17;4.53;;;25.50;90.70;;;;;;6126831;23;20481;-78
2021/06/14 07:36:46;;;;;;;7.57;4.83;;;25.70;90.50;;;;;;6100501;23;20418;-78
2021/06/14 07:39:15;;;;;;;5.00;3.90;;;25.80;90.20;;;;;;6100073;23;20452;-77
2021/06/14 07:41:44;;;;;;;4.70;3.80;;;25.90;90.10;;;;;;6100681;23;20496;-78
2021/06/14 07:44:12;;;;;;;5.30;4.60;;;26.10;89.80;;;;;;6127304;23;20480;-78
2021/06/14 07:46:42;;;;;;;5.05;4.18;;;26.20;89.10;;;;;;6099517;23;20905;-77
2021/06/14 07:49:10;;;;;;;7.83;4.23;;;26.30;83.90;;;;;;6102743;23;20198;-78
2021/06/14 07:51:38;;;;;;;7.27;4.40;;;26.40;84.20;;;;;;6105025;23;20414;-78
2021/06/14 07:54:10;;;;;;;4.27;3.87;;;26.40;83.90;;;;;;6105270;23;20417;-78
2021/06/14 07:56:43;;;;;;;6.00;4.10;;;26.40;84.00;;;;;;6104516;23;20430;-78
2021/06/14 07:59:12;;;;;;;8.53;6.20;;;26.40;83.90;;;;;;6104402;23;20437;-78
2021/06/14 08:01:44;;;;;;;5.87;3.93;;;26.50;83.60;;;;;;6129721;23;20470;-78
2021/06/14 08:04:13;;;;;;;5.63;4.07;;;26.50;83.40;;;;;;6104097;23;20465;-78
2021/06/14 08:06:44;;;;;;;7.53;4.30;;;26.50;82.80;;;;;;6103472;23;20790;-78
2021/06/14 08:09:15;;;;;;;4.30;3.90;;;26.60;82.50;;;;;;6103394;23;20471;-77
2021/06/14 08:11:44;;;;;;;5.50;3.97;;;26.60;81.90;;;;;;6127947;23;20418;-78
2021/06/14 08:14:14;;;;;;;5.70;4.00;;;26.70;81.60;;;;;;6129239;23;20406;-77
2021/06/14 08:16:44;;;;;;;5.73;4.33;;;26.70;81.00;;;;;;6139180;23;20401;-78
2021/06/14 08:19:15;;;;;;;4.50;3.77;;;26.80;80.60;;;;;;6102794;23;20520;-77
2021/06/14 08:27:18;;;;;;;6.57;3.40;;;26.80;79.10;;;;;;6103050;23;20446;-78
2021/06/14 08:29:46;;;;;;;4.90;3.63;;;26.80;78.70;;;;;;6103348;23;20497;-78
2021/06/14 08:32:15;;;;;;;4.87;3.60;;;26.80;78.30;;;;;;6128986;23;20413;-77
2021/06/14 08:34:44;;;;;;;5.10;3.57;;;26.80;77.60;;;;;;6102877;23;20418;-78
2021/06/14 08:37:14;;;;;;;4.93;3.97;;;26.80;77.30;;;;;;6103080;23;20425;-79
2021/06/14 08:39:42;;;;;;;6.37;3.80;;;26.80;77.50;;;;;;6102931;23;20477;-78
2021/06/14 08:42:11;;;;;;;6.07;3.67;;;26.90;77.30;;;;;;6103056;23;20449;-78
2021/06/14 08:44:39;;;;;;;4.40;3.40;;;26.90;77.30;;;;;;6102884;23;20436;-77
2021/06/14 08:47:10;;;;;;;6.75;3.78;;;27.00;77.10;;;;;;6101063;23;20426;-78
2021/06/14 08:49:41;;;;;;;4.70;3.40;;;27.10;72.30;;;;;;6103037;23;20209;-77
2021/06/14 08:52:09;;;;;;;6.27;4.30;;;27.10;72.90;;;;;;6138298;23;20386;-77
2021/06/14 08:54:42;;;;;;;6.00;4.80;;;27.20;73.70;;;;;;6102922;23;20428;-78
2021/06/14 08:57:13;;;;;;;6.13;4.03;;;27.20;73.70;;;;;;6138093;23;20756;-78
2021/06/14 08:59:42;;;;;;;5.57;3.83;;;27.20;73.70;;;;;;6103614;23;20410;-78
2021/06/14 09:02:10;;;;;;;6.00;4.67;;;27.30;73.40;;;;;;6103609;23;20528;-77
2021/06/14 09:04:40;;;;;;;5.30;4.70;;;27.20;73.20;;;;;;6103596;23;20420;-78
2021/06/14 09:07:09;;;;;;;5.20;4.00;;;27.20;73.20;;;;;;6103162;23;20484;-78
2021/06/14 09:09:37;;;;;;;5.50;3.43;;;27.20;73.50;;;;;;6103366;23;20497;-78
2021/06/14 09:12:07;;;;;;;5.40;3.77;;;27.20;73.40;;;;;;6103825;23;20468;-78
2021/06/14 09:14:40;;;;;;;4.47;3.87;;;27.30;73.00;;;;;;6129094;23;20445;-78
2021/06/14 09:17:12;;;;;;;5.70;3.73;;;27.30;72.80;;;;;;6140483;23;20439;-79
2021/06/14 09:19:50;;;;;;;5.63;3.80;;;27.30;72.50;;;;;;6130123;23;20394;-78
2021/06/14 09:22:21;;;;;;;3.90;3.50;;;27.30;72.30;;;;;;6103990;23;20433;-78
2021/06/14 09:24:57;;;;;;;6.70;4.23;;;27.30;72.30;;;;;;6129673;23;20390;-78
2021/06/14 09:27:30;;;;;;;6.60;4.10;;;27.40;72.20;;;;;;6104536;23;20481;-79
2021/06/14 09:29:59;;;;;;;6.30;3.90;;;27.40;71.90;;;;;;6128220;23;20420;-79
2021/06/14 09:32:27;;;;;;;6.20;3.63;;;27.40;71.70;;;;;;6102903;23;20825;-78
2021/06/14 09:34:56;;;;;;;5.03;4.07;;;27.40;71.90;;;;;;6127269;23;20754;-78
2021/06/14 09:37:24;;;;;;;5.63;3.73;;;27.50;72.10;;;;;;6139541;23;20943;-78
2021/06/14 09:39:53;;;;;;;3.70;3.37;;;27.60;72.30;;;;;;6139272;23;20448;-79
2021/06/14 09:42:23;;;;;;;4.50;3.80;;;27.60;71.90;;;;;;6128573;23;20414;-79
2021/06/14 09:44:53;;;;;;;4.90;3.40;;;27.70;70.60;;;;;;6140416;23;20414;-78
2021/06/14 09:47:22;;;;;;;4.07;3.77;;;27.80;70.70;;;;;;6103267;23;20768;-79
2021/06/14 09:49:59;;;;;;;3.97;3.30;;;27.80;70.60;;;;;;6129649;23;20413;-78
2021/06/14 09:52:28;;;;;;;4.27;3.23;;;27.80;70.70;;;;;;6127106;23;20493;-77
2021/06/14 09:55:08;;;;;;;8.40;3.90;;;27.90;70.50;;;;;;6102879;23;20913;-78
2021/06/14 09:57:36;;;;;;;4.30;3.58;;;28.00;70.10;;;;;;6136673;23;20433;-78
2021/06/14 10:00:10;;;;;;;4.70;3.70;;;28.10;66.90;;;;;;6103148;23;20621;-78
2021/06/14 10:02:46;;;;;;;3.93;3.23;;;28.10;67.10;;;;;;6130083;23;20772;-78
2021/06/14 10:05:20;;;;;;;5.13;3.33;;;28.10;67.50;;;;;;6105245;23;20413;-78
2021/06/14 10:07:51;;;;;;;4.77;2.93;;;28.10;67.60;;;;;;6106394;23;20460;-78
2021/06/14 10:10:21;;;;;;;4.70;3.50;;;28.00;67.40;;;;;;6131718;23;20401;-78
2021/06/14 10:12:51;;;;;;;6.57;3.70;;;28.00;67.30;;;;;;6139493;23;20386;-77
2021/06/14 10:15:29;;;;;;;3.77;3.10;;;28.00;67.40;;;;;;6103552;23;20959;-78
2021/06/14 10:17:58;;;;;;;5.13;3.60;;;28.00;67.30;;;;;;6127604;23;20473;-77
2021/06/14 10:20:30;;;;;;;5.17;3.33;;;28.10;67.50;;;;;;6127098;23;20990;-77
2021/06/14 10:23:00;;;;;;;5.03;3.10;;;28.10;67.40;;;;;;6103971;23;20488;-77
2021/06/14 10:25:34;;;;;;;4.40;2.93;;;28.20;67.00;;;;;;6103794;23;20433;-77
2021/06/14 10:28:04;;;;;;;8.10;4.00;;;28.20;66.70;;;;;;6102093;23;20449;-77
2021/06/14 10:30:33;;;;;;;4.43;3.50;;;28.20;66.70;;;;;;6137358;23;20485;-77
2021/06/14 10:33:03;;;;;;;3.80;3.00;;;28.20;66.70;;;;;;6101374;23;20422;-77
2021/06/14 10:35:34;;;;;;;4.67;2.97;;;28.20;66.10;;;;;;6101223;23;20748;-77
2021/06/14 10:38:04;;;;;;;3.40;3.10;;;28.10;66.10;;;;;;6101545;23;20438;-77
2021/06/14 10:40:36;;;;;;;5.07;3.10;;;28.20;67.00;;;;;;6125820;23;20457;-77
2021/06/14 10:43:05;;;;;;;6.13;3.60;;;28.30;66.50;;;;;;6101329;23;20465;-77
2021/06/14 10:45:34;;;;;;;5.10;4.10;;;28.30;66.50;;;;;;6127313;23;20409;-77
2021/06/14 10:48:05;;;;;;;3.50;3.20;;;28.30;66.20;;;;;;6125788;23;20445;-76
2021/06/14 10:50:36;;;;;;;4.28;3.20;;;28.40;66.00;;;;;;6136907;23;20727;-77
2021/06/14 10:53:06;;;;;;;4.67;3.30;;;28.30;65.70;;;;;;6126029;23;20185;-77
2021/06/14 10:55:36;;;;;;;7.23;3.40;;;28.30;65.60;;;;;;6137094;23;20401;-77
2021/06/14 10:58:15;;;;;;;4.63;3.93;;;28.30;65.60;;;;;;6100583;23;20492;-76
2021/06/14 11:00:44;;;;;;;3.97;3.53;;;28.30;65.40;;;;;;6124884;23;20464;-77
2021/06/14 11:03:15;;;;;;;4.40;3.70;;;28.30;65.10;;;;;;6124716;23;20445;-77
2021/06/14 11:05:46;;;;;;;3.80;2.97;;;28.30;64.90;;;;;;6136581;23;20706;-76
2021/06/14 11:08:16;;;;;;;4.00;2.70;;;28.30;64.70;;;;;;6100620;23;20445;-77
2021/06/14 11:10:50;;;;;;;3.40;3.00;;;28.30;64.60;;;;;;6100586;23;20417;-77
2021/06/14 11:13:19;;;;;;;7.10;4.20;;;28.20;64.40;;;;;;6100460;23;20450;-77
2021/06/14 11:15:48;;;;;;;5.60;4.23;;;28.20;64.60;;;;;;6100668;23;20424;-77
2021/06/14 11:18:24;;;;;;;4.23;2.63;;;28.20;64.90;;;;;;6125353;23;20441;-77
2021/06/14 11:21:07;;;;;;;3.60;3.20;;;28.30;64.80;;;;;;6137823;23;20463;-77
2021/06/14 11:23:37;;;;;;;4.13;3.00;;;28.30;64.50;;;;;;6102816;23;20461;-77
2021/06/14 11:26:06;;;;;;;4.20;3.17;;;28.40;64.40;;;;;;6126613;23;20413;-77
2021/06/14 11:28:37;;;;;;;5.13;3.05;;;28.40;64.60;;;;;;6102131;23;20450;-77
2021/06/14 11:31:15;;;;;;;7.20;4.30;;;28.40;64.40;;;;;;6102435;23;20217;-77
2021/06/14 11:33:44;;;;;;;5.03;3.57;;;28.50;64.20;;;;;;6102569;23;20413;-78
2021/06/14 11:36:17;;;;;;;5.33;3.60;;;28.50;64.10;;;;;;6138514;23;20408;-77
2021/06/14 11:38:46;;;;;;;4.70;2.97;;;28.50;64.00;;;;;;6102101;23;20446;-77
2021/06/14 11:41:25;;;;;;;4.57;3.60;;;28.50;63.70;;;;;;6102338;23;20420;-77
2021/06/14 11:44:22;;;;;;;3.93;2.83;;;28.50;63.20;;;;;;6126585;23;20492;-77
2021/06/14 11:46:52;;;;;;;3.70;2.77;;;28.50;62.70;;;;;;6138291;23;20650;-77
2021/06/14 11:49:30;;;;;;;5.00;3.47;;;28.50;62.60;;;;;;6127364;23;20727;-76
2021/06/14 11:52:01;;;;;;;7.00;3.83;;;28.40;62.80;;;;;;6138255;23;20378;-77
2021/06/14 11:54:29;;;;;;;4.33;3.20;;;28.50;62.90;;;;;;6102263;23;20410;-77
2021/06/14 11:57:00;;;;;;;6.17;3.50;;;28.50;63.10;;;;;;6126356;23;20508;-78
2021/06/14 11:59:31;;;;;;;4.10;2.90;;;28.50;63.10;;;;;;6102259;23;20422;-77
2021/06/14 12:02:01;;;;;;;3.30;3.00;;;28.60;63.00;;;;;;6128122;23;20509;-77
2021/06/14 12:04:30;;;;;;;4.27;3.23;;;28.60;62.50;;;;;;6102217;23;20448;-76
2021/06/14 12:07:02;;;;;;;4.73;3.30;;;28.60;62.50;;;;;;6101839;23;20422;-77
2021/06/14 12:09:39;;;;;;;3.77;2.73;;;28.60;62.40;;;;;;6137484;23;20413;-77
2021/06/14 12:12:09;;;;;;;4.10;3.43;;;28.60;62.20;;;;;;6126486;23;20433;-76
2021/06/14 12:14:37;;;;;;;3.97;3.23;;;28.60;62.40;;;;;;6138100;23;20405;-78
2021/06/14 12:17:07;;;;;;;3.40;3.10;;;28.70;62.50;;;;;;6128450;23;20418;-77
2021/06/14 12:19:37;;;;;;;3.70;3.13;;;28.70;62.30;;;;;;6103706;23;20414;-77
2021/06/14 12:22:09;;;;;;;4.32;2.88;;;28.70;62.30;;;;;;6100425;23;20787;-77
2021/06/14 12:24:39;;;;;;;4.00;2.90;;;28.80;61.00;;;;;;6101967;23;20249;-77
2021/06/14 12:27:08;;;;;;;3.13;2.90;;;28.80;61.30;;;;;;6102124;23;20822;-77
2021/06/14 12:29:38;;;;;;;3.17;2.87;;;28.80;61.60;;;;;;6128011;23;20410;-77
2021/06/14 12:32:09;;;;;;;3.47;2.90;;;28.80;61.90;;;;;;6102145;23;20418;-77
2021/06/14 12:34:39;;;;;;;4.00;3.30;;;28.90;61.80;;;;;;6127839;23;20489;-77
2021/06/14 12:37:10;;;;;;;6.97;3.30;;;28.90;61.70;;;;;;6128180;23;20473;-77
2021/06/14 12:39:40;;;;;;;4.83;3.00;;;29.00;61.80;;;;;;6101860;23;20402;-77
2021/06/14 12:42:18;;;;;;;3.90;3.23;;;29.00;61.50;;;;;;6101681;23;20406;-77
2021/06/14 12:44:57;;;;;;;3.80;3.40;;;29.00;61.60;;;;;;6101767;23;20452;-77
2021/06/14 12:47:26;;;;;;;6.70;3.53;;;29.00;61.70;;;;;;6127413;23;20492;-78
2021/06/14 12:49:55;;;;;;;4.93;2.70;;;29.00;62.00;;;;;;6127878;23;20788;-78
2021/06/14 12:52:24;;;;;;;4.10;2.67;;;29.00;61.90;;;;;;6127419;23;20437;-77
2021/06/14 12:54:54;;;;;;;3.30;2.60;;;29.00;61.40;;;;;;6101614;23;20496;-77
2021/06/14 12:57:25;;;;;;;2.97;2.67;;;29.00;61.30;;;;;;6127659;23;20468;-77
2021/06/14 12:59:54;;;;;;;5.53;2.13;;;29.10;61.20;;;;;;6101599;23;20406;-77
2021/06/14 13:02:22;;;;;;;3.90;2.60;;;29.10;61.40;;;;;;6136824;23;20932;-77
2021/06/14 13:04:51;;;;;;;4.40;2.50;;;29.10;61.20;;;;;;6101421;23;20412;-77
2021/06/14 13:07:20;;;;;;;2.97;2.50;;;29.20;61.00;;;;;;6101392;23;20983;-78
2021/06/14 13:09:51;;;;;;;5.90;2.50;;;29.20;60.60;;;;;;6137199;23;20909;-77
2021/06/14 13:12:29;;;;;;;3.90;2.60;;;29.20;60.40;;;;;;6127637;23;20417;-77
2021/06/14 13:15:08;;;;;;;3.67;3.00;;;29.20;60.10;;;;;;6100266;23;20452;-77